sensor_id;sensor_type;location;lat;lon;timestamp;pressure;altitude;pressure_sealevel;temperature;humidity
27429;BME280;14881;48.092;11.574;2022-11-14T00:01:19;95526.22;;;3.55;100.00
27429;BME280;14881;48.092;11.574;2022-11-14T00:03:48;95510.44;;;3.59;100.00
27429;BME280;14881;48.092;11.574;2022-11-14T00:06:17;95504.50;;;3.57;100.00
27429;BME280;14881;48.092;11.574;2022-11-14T00:08:45;95503.25;;;3.47;100.00
27429;BME280;14881;48.092;11.574;2022-11-14T00:11:14;95497.59;;;3.44;100.00
27429;BME280;14881;48.092;11.574;2022-11-14T00:13:41;95497.19;;;3.35;100.00
27429;BME280;14881;48.092;11.574;2022-11-14T00:16:09;95493.84;;;3.45;100.00
27429;BME280;14881;48.092;11.574;2022-11-14T00:18:39;95496.84;;;3.32;100.00
27429;BME280;14881;48.092;11.574;2022-11-14T00:21:09;95481.50;;;3.27;100.00
27429;BME280;14881;48.092;11.574;2022-11-14T00:23:37;95485.63;;;3.35;100.00
27429;BME280;14881;48.092;11.574;2022-11-14T00:26:05;95491.66;;;3.42;100.00
27429;BME280;14881;48.092;11.574;2022-11-14T00:28:34;95494.91;;;3.44;100.00
27429;BME280;14881;48.092;11.574;2022-11-14T00:31:01;95483.59;;;3.42;100.00
27429;BME280;14881;48.092;11.574;2022-11-14T00:33:29;95484.91;;;3.39;100.00
27429;BME280;14881;48.092;11.574;2022-11-14T00:35:57;95482.69;;;3.36;100.00
27429;BME280;14881;48.092;11.574;2022-11-14T00:38:24;95487.81;;;3.38;100.00
27429;BME280;14881;48.092;11.574;2022-11-14T00:40:52;95487.25;;;3.36;100.00
27429;BME280;14881;48.092;11.574;2022-11-14T00:43:20;95493.28;;;3.43;100.00
27429;BME280;14881;48.092;11.574;2022-11-14T00:45:52;95504.16;;;3.53;100.00
27429;BME280;14881;48.092;11.574;2022-11-14T00:48:21;95504.00;;;3.60;100.00
27429;BME280;14881;48.092;11.574;2022-11-14T00:50:49;95499.94;;;3.57;100.00
27429;BME280;14881;48.092;11.574;2022-11-14T00:53:17;95504.09;;;3.48;100.00
27429;BME280;14881;48.092;11.574;2022-11-14T00:55:44;95495.72;;;3.44;100.00
27429;BME280;14881;48.092;11.574;2022-11-14T00:58:12;95495.31;;;3.36;100.00
27429;BME280;14881;48.092;11.574;2022-11-14T01:00:40;95491.81;;;3.35;100.00
27429;BME280;14881;48.092;11.574;2022-11-14T01:03:09;95489.53;;;3.27;100.00
27429;BME280;14881;48.092;11.574;2022-11-14T01:05:40;95501.16;;;3.16;100.00
27429;BME280;14881;48.092;11.574;2022-11-14T01:08:07;95505.88;;;3.09;100.00
27429;BME280;14881;48.092;11.574;2022-11-14T01:10:38;95496.53;;;3.11;100.00
27429;BME280;14881;48.092;11.574;2022-11-14T01:13:06;95490.06;;;2.96;100.00
27429;BME280;14881;48.092;11.574;2022-11-14T01:15:37;95494.31;;;2.92;100.00
27429;BME280;14881;48.092;11.574;2022-11-14T01:18:05;95495.84;;;2.88;100.00
27429;BME280;14881;48.092;11.574;2022-11-14T01:20:37;95496.47;;;2.78;100.00
27429;BME280;14881;48.092;11.574;2022-11-14T01:23:05;95496.81;;;2.82;100.00
27429;BME280;14881;48.092;11.574;2022-11-14T01:25:33;95498.91;;;2.79;100.00
27429;BME280;14881;48.092;11.574;2022-11-14T01:28:05;95506.00;;;2.86;100.00
27429;BME280;14881;48.092;11.574;2022-11-14T01:30:32;95508.53;;;2.92;100.00
27429;BME280;14881;48.092;11.574;2022-11-14T01:33:01;95507.06;;;2.85;100.00
27429;BME280;14881;48.092;11.574;2022-11-14T01:35:34;95501.00;;;2.77;100.00
27429;BME280;14881;48.092;11.574;2022-11-14T01:38:04;95504.47;;;2.61;100.00
27429;BME280;14881;48.092;11.574;2022-11-14T01:40:32;95496.13;;;2.58;100.00
27429;BME280;14881;48.092;11.574;2022-11-14T01:43:24;95483.19;;;2.55;100.00
27429;BME280;14881;48.092;11.574;2022-11-14T01:45:55;95474.81;;;2.51;100.00
27429;BME280;14881;48.092;11.574;2022-11-14T01:48:27;95474.56;;;2.53;100.00
27429;BME280;14881;48.092;11.574;2022-11-14T01:50:59;95471.25;;;2.62;100.00
27429;BME280;14881;48.092;11.574;2022-11-14T01:53:28;95473.94;;;2.62;100.00
27429;BME280;14881;48.092;11.574;2022-11-14T01:55:59;95474.59;;;2.69;100.00
27429;BME280;14881;48.092;11.574;2022-11-14T01:58:29;95482.00;;;2.79;100.00
27429;BME280;14881;48.092;11.574;2022-11-14T02:00:58;95480.81;;;2.87;100.00
27429;BME280;14881;48.092;11.574;2022-11-14T02:03:26;95473.47;;;2.82;100.00
27429;BME280;14881;48.092;11.574;2022-11-14T02:05:54;95473.91;;;2.91;100.00
27429;BME280;14881;48.092;11.574;2022-11-14T02:08:24;95462.16;;;2.80;100.00
27429;BME280;14881;48.092;11.574;2022-11-14T02:10:55;95464.78;;;2.75;100.00
27429;BME280;14881;48.092;11.574;2022-11-14T02:13:22;95459.00;;;2.83;100.00
27429;BME280;14881;48.092;11.574;2022-11-14T02:15:50;95451.44;;;2.80;100.00
27429;BME280;14881;48.092;11.574;2022-11-14T02:18:18;95460.63;;;2.84;100.00
27429;BME280;14881;48.092;11.574;2022-11-14T02:20:47;95461.44;;;2.85;100.00
27429;BME280;14881;48.092;11.574;2022-11-14T02:23:24;95458.19;;;2.83;100.00
27429;BME280;14881;48.092;11.574;2022-11-14T02:25:53;95459.09;;;2.88;100.00
27429;BME280;14881;48.092;11.574;2022-11-14T02:28:21;95464.06;;;2.96;100.00
27429;BME280;14881;48.092;11.574;2022-11-14T02:30:48;95463.81;;;2.98;100.00
27429;BME280;14881;48.092;11.574;2022-11-14T02:33:16;95474.88;;;3.01;100.00
27429;BME280;14881;48.092;11.574;2022-11-14T02:35:44;95472.91;;;2.97;100.00
27429;BME280;14881;48.092;11.574;2022-11-14T02:38:20;95480.16;;;2.96;100.00
27429;BME280;14881;48.092;11.574;2022-11-14T02:40:48;95475.53;;;2.92;100.00
27429;BME280;14881;48.092;11.574;2022-11-14T02:43:16;95459.00;;;2.83;100.00
27429;BME280;14881;48.092;11.574;2022-11-14T02:45:43;95457.97;;;2.84;100.00
27429;BME280;14881;48.092;11.574;2022-11-14T02:48:13;95454.63;;;2.77;100.00
27429;BME280;14881;48.092;11.574;2022-11-14T02:50:41;95451.13;;;2.76;100.00
27429;BME280;14881;48.092;11.574;2022-11-14T02:53:09;95441.59;;;2.69;100.00
27429;BME280;14881;48.092;11.574;2022-11-14T02:55:38;95438.00;;;2.63;100.00
27429;BME280;14881;48.092;11.574;2022-11-14T03:00:42;95424.91;;;2.50;100.00
27429;BME280;14881;48.092;11.574;2022-11-14T03:03:30;95422.78;;;2.35;100.00
27429;BME280;14881;48.092;11.574;2022-11-14T03:05:59;95428.13;;;2.35;100.00
27429;BME280;14881;48.092;11.574;2022-11-14T03:08:29;95424.31;;;2.31;100.00
27429;BME280;14881;48.092;11.574;2022-11-14T03:11:04;95430.47;;;2.32;100.00
27429;BME280;14881;48.092;11.574;2022-11-14T03:13:31;95418.13;;;2.31;100.00
27429;BME280;14881;48.092;11.574;2022-11-14T03:16:04;95422.06;;;2.40;100.00
27429;BME280;14881;48.092;11.574;2022-11-14T03:18:32;95425.16;;;2.49;100.00
27429;BME280;14881;48.092;11.574;2022-11-14T03:21:04;95427.72;;;2.43;100.00
27429;BME280;14881;48.092;11.574;2022-11-14T03:23:35;95425.69;;;2.34;100.00
27429;BME280;14881;48.092;11.574;2022-11-14T03:26:05;95430.06;;;2.23;100.00
27429;BME280;14881;48.092;11.574;2022-11-14T03:28:34;95416.31;;;2.20;100.00
27429;BME280;14881;48.092;11.574;2022-11-14T03:31:02;95411.66;;;2.15;100.00
27429;BME280;14881;48.092;11.574;2022-11-14T03:33:31;95416.34;;;2.08;100.00
27429;BME280;14881;48.092;11.574;2022-11-14T03:35:59;95412.88;;;2.07;100.00
27429;BME280;14881;48.092;11.574;2022-11-14T03:38:27;95410.91;;;2.03;100.00
27429;BME280;14881;48.092;11.574;2022-11-14T03:40:57;95410.31;;;2.01;100.00
27429;BME280;14881;48.092;11.574;2022-11-14T03:43:31;95413.38;;;1.93;100.00
27429;BME280;14881;48.092;11.574;2022-11-14T03:45:59;95417.09;;;1.92;100.00
27429;BME280;14881;48.092;11.574;2022-11-14T03:48:28;95423.91;;;2.11;100.00
27429;BME280;14881;48.092;11.574;2022-11-14T03:50:57;95449.94;;;2.27;100.00
27429;BME280;14881;48.092;11.574;2022-11-14T03:53:24;95442.47;;;2.29;100.00
27429;BME280;14881;48.092;11.574;2022-11-14T03:55:53;95444.41;;;2.17;100.00
27429;BME280;14881;48.092;11.574;2022-11-14T03:58:21;95427.31;;;2.06;100.00
27429;BME280;14881;48.092;11.574;2022-11-14T04:00:50;95425.47;;;2.07;100.00
27429;BME280;14881;48.092;11.574;2022-11-14T04:03:19;95420.53;;;2.16;100.00
27429;BME280;14881;48.092;11.574;2022-11-14T04:05:50;95426.22;;;2.19;100.00
27429;BME280;14881;48.092;11.574;2022-11-14T04:08:18;95435.66;;;2.22;100.00
27429;BME280;14881;48.092;11.574;2022-11-14T04:10:46;95442.31;;;2.19;100.00
27429;BME280;14881;48.092;11.574;2022-11-14T04:13:14;95448.50;;;2.08;100.00
27429;BME280;14881;48.092;11.574;2022-11-14T04:15:42;95451.31;;;2.01;100.00
27429;BME280;14881;48.092;11.574;2022-11-14T04:18:11;95431.53;;;1.91;100.00
27429;BME280;14881;48.092;11.574;2022-11-14T04:20:39;95425.53;;;1.84;100.00
27429;BME280;14881;48.092;11.574;2022-11-14T04:23:06;95426.56;;;1.83;100.00
27429;BME280;14881;48.092;11.574;2022-11-14T04:25:34;95439.38;;;1.81;100.00
27429;BME280;14881;48.092;11.574;2022-11-14T04:28:02;95441.72;;;1.77;100.00
27429;BME280;14881;48.092;11.574;2022-11-14T04:30:29;95448.00;;;1.83;100.00
27429;BME280;14881;48.092;11.574;2022-11-14T04:33:00;95440.88;;;1.88;100.00
27429;BME280;14881;48.092;11.574;2022-11-14T04:35:29;95437.25;;;1.94;100.00
27429;BME280;14881;48.092;11.574;2022-11-14T04:37:57;95429.59;;;1.86;100.00
27429;BME280;14881;48.092;11.574;2022-11-14T04:40:24;95416.56;;;1.90;100.00
27429;BME280;14881;48.092;11.574;2022-11-14T04:42:52;95418.84;;;1.98;100.00
27429;BME280;14881;48.092;11.574;2022-11-14T04:45:20;95417.78;;;1.99;100.00
27429;BME280;14881;48.092;11.574;2022-11-14T04:47:47;95425.81;;;1.99;100.00
27429;BME280;14881;48.092;11.574;2022-11-14T04:50:15;95425.59;;;2.00;100.00
27429;BME280;14881;48.092;11.574;2022-11-14T04:52:50;95438.97;;;2.00;100.00
27429;BME280;14881;48.092;11.574;2022-11-14T04:55:17;95435.03;;;2.03;100.00
27429;BME280;14881;48.092;11.574;2022-11-14T04:57:45;95434.69;;;1.99;100.00
27429;BME280;14881;48.092;11.574;2022-11-14T05:00:14;95441.19;;;1.92;100.00
27429;BME280;14881;48.092;11.574;2022-11-14T05:02:41;95438.56;;;1.80;100.00
27429;BME280;14881;48.092;11.574;2022-11-14T05:05:09;95425.78;;;1.70;100.00
27429;BME280;14881;48.092;11.574;2022-11-14T05:07:37;95424.75;;;1.71;100.00
27429;BME280;14881;48.092;11.574;2022-11-14T05:10:08;95429.06;;;1.72;100.00
27429;BME280;14881;48.092;11.574;2022-11-14T05:12:35;95423.78;;;1.78;100.00
27429;BME280;14881;48.092;11.574;2022-11-14T05:15:04;95411.13;;;1.73;100.00
27429;BME280;14881;48.092;11.574;2022-11-14T05:17:31;95418.56;;;1.71;100.00
27429;BME280;14881;48.092;11.574;2022-11-14T05:19:59;95407.06;;;1.59;100.00
27429;BME280;14881;48.092;11.574;2022-11-14T05:22:29;95421.28;;;1.48;100.00
27429;BME280;14881;48.092;11.574;2022-11-14T05:24:56;95431.63;;;1.44;100.00
27429;BME280;14881;48.092;11.574;2022-11-14T05:27:25;95425.38;;;1.38;100.00
27429;BME280;14881;48.092;11.574;2022-11-14T05:29:53;95416.88;;;1.30;100.00
27429;BME280;14881;48.092;11.574;2022-11-14T05:32:24;95418.03;;;1.22;100.00
27429;BME280;14881;48.092;11.574;2022-11-14T05:34:54;95422.81;;;1.09;100.00
27429;BME280;14881;48.092;11.574;2022-11-14T05:37:21;95423.25;;;1.05;100.00
27429;BME280;14881;48.092;11.574;2022-11-14T05:39:49;95418.38;;;0.91;100.00
27429;BME280;14881;48.092;11.574;2022-11-14T05:42:17;95427.56;;;0.83;100.00
27429;BME280;14881;48.092;11.574;2022-11-14T05:44:46;95435.81;;;0.93;100.00
27429;BME280;14881;48.092;11.574;2022-11-14T05:47:16;95445.56;;;0.88;100.00
27429;BME280;14881;48.092;11.574;2022-11-14T05:49:44;95456.84;;;0.78;100.00
27429;BME280;14881;48.092;11.574;2022-11-14T05:52:12;95460.19;;;0.74;100.00
27429;BME280;14881;48.092;11.574;2022-11-14T05:54:39;95461.00;;;0.74;100.00
27429;BME280;14881;48.092;11.574;2022-11-14T05:57:07;95463.22;;;0.65;100.00
27429;BME280;14881;48.092;11.574;2022-11-14T05:59:35;95461.22;;;0.61;100.00
27429;BME280;14881;48.092;11.574;2022-11-14T06:02:04;95462.50;;;0.58;100.00
27429;BME280;14881;48.092;11.574;2022-11-14T06:04:32;95459.44;;;0.55;100.00
27429;BME280;14881;48.092;11.574;2022-11-14T06:07:01;95456.31;;;0.46;100.00
27429;BME280;14881;48.092;11.574;2022-11-14T06:09:29;95469.44;;;0.48;100.00
27429;BME280;14881;48.092;11.574;2022-11-14T06:11:57;95485.78;;;0.40;100.00
27429;BME280;14881;48.092;11.574;2022-11-14T06:14:25;95489.50;;;0.39;100.00
27429;BME280;14881;48.092;11.574;2022-11-14T06:16:52;95483.88;;;0.28;100.00
27429;BME280;14881;48.092;11.574;2022-11-14T06:19:21;95483.78;;;0.35;100.00
27429;BME280;14881;48.092;11.574;2022-11-14T06:21:51;95483.22;;;0.33;100.00
27429;BME280;14881;48.092;11.574;2022-11-14T06:24:18;95483.06;;;0.28;100.00
27429;BME280;14881;48.092;11.574;2022-11-14T06:26:46;95487.00;;;0.25;100.00
27429;BME280;14881;48.092;11.574;2022-11-14T06:29:13;95483.88;;;0.28;100.00
27429;BME280;14881;48.092;11.574;2022-11-14T06:31:41;95480.66;;;0.38;100.00
27429;BME280;14881;48.092;11.574;2022-11-14T06:34:10;95483.03;;;0.46;100.00
27429;BME280;14881;48.092;11.574;2022-11-14T06:36:42;95475.00;;;0.46;100.00
27429;BME280;14881;48.092;11.574;2022-11-14T06:39:09;95463.16;;;0.54;100.00
27429;BME280;14881;48.092;11.574;2022-11-14T06:41:37;95477.94;;;0.56;100.00
27429;BME280;14881;48.092;11.574;2022-11-14T06:44:06;95472.69;;;0.50;100.00
27429;BME280;14881;48.092;11.574;2022-11-14T06:46:34;95472.13;;;0.59;100.00
27429;BME280;14881;48.092;11.574;2022-11-14T06:49:03;95477.25;;;0.61;100.00
27429;BME280;14881;48.092;11.574;2022-11-14T06:51:31;95493.06;;;0.62;100.00
27429;BME280;14881;48.092;11.574;2022-11-14T06:54:00;95492.25;;;0.62;100.00
27429;BME280;14881;48.092;11.574;2022-11-14T06:56:28;95478.06;;;0.61;100.00
27429;BME280;14881;48.092;11.574;2022-11-14T06:58:55;95461.81;;;0.63;100.00
27429;BME280;14881;48.092;11.574;2022-11-14T07:01:24;95469.25;;;0.73;100.00
27429;BME280;14881;48.092;11.574;2022-11-14T07:03:52;95467.69;;;0.83;100.00
27429;BME280;14881;48.092;11.574;2022-11-14T07:06:24;95469.53;;;0.83;100.00
27429;BME280;14881;48.092;11.574;2022-11-14T07:08:52;95466.03;;;0.82;100.00
27429;BME280;14881;48.092;11.574;2022-11-14T07:11:26;95466.75;;;0.89;100.00
27429;BME280;14881;48.092;11.574;2022-11-14T07:13:56;95465.47;;;0.92;100.00
27429;BME280;14881;48.092;11.574;2022-11-14T07:16:26;95466.84;;;0.83;100.00
27429;BME280;14881;48.092;11.574;2022-11-14T07:18:55;95471.03;;;0.79;100.00
27429;BME280;14881;48.092;11.574;2022-11-14T07:21:24;95468.59;;;0.77;100.00
27429;BME280;14881;48.092;11.574;2022-11-14T07:23:52;95470.66;;;0.75;100.00
27429;BME280;14881;48.092;11.574;2022-11-14T07:26:20;95481.88;;;0.95;100.00
27429;BME280;14881;48.092;11.574;2022-11-14T07:28:49;95485.38;;;0.96;100.00
27429;BME280;14881;48.092;11.574;2022-11-14T07:31:22;95487.00;;;0.97;100.00
27429;BME280;14881;48.092;11.574;2022-11-14T07:33:49;95487.13;;;1.02;100.00
27429;BME280;14881;48.092;11.574;2022-11-14T07:36:17;95482.97;;;1.18;100.00
27429;BME280;14881;48.092;11.574;2022-11-14T07:38:45;95482.50;;;1.21;100.00
27429;BME280;14881;48.092;11.574;2022-11-14T07:41:14;95477.59;;;1.18;100.00
27429;BME280;14881;48.092;11.574;2022-11-14T07:43:42;95480.38;;;1.23;100.00
27429;BME280;14881;48.092;11.574;2022-11-14T07:46:13;95473.41;;;1.33;100.00
27429;BME280;14881;48.092;11.574;2022-11-14T07:48:41;95477.38;;;1.54;100.00
27429;BME280;14881;48.092;11.574;2022-11-14T07:51:13;95471.66;;;1.62;100.00
27429;BME280;14881;48.092;11.574;2022-11-14T07:53:41;95470.81;;;1.73;100.00
27429;BME280;14881;48.092;11.574;2022-11-14T07:56:10;95462.41;;;1.93;100.00
27429;BME280;14881;48.092;11.574;2022-11-14T07:58:39;95462.09;;;2.18;100.00
27429;BME280;14881;48.092;11.574;2022-11-14T08:01:10;95458.31;;;2.31;100.00
27429;BME280;14881;48.092;11.574;2022-11-14T08:03:42;95447.00;;;2.40;100.00
27429;BME280;14881;48.092;11.574;2022-11-14T08:06:13;95444.41;;;2.45;100.00
27429;BME280;14881;48.092;11.574;2022-11-14T08:08:41;95444.03;;;2.54;100.00
27429;BME280;14881;48.092;11.574;2022-11-14T08:11:09;95439.63;;;2.64;100.00
27429;BME280;14881;48.092;11.574;2022-11-14T08:13:37;95436.56;;;2.72;100.00
27429;BME280;14881;48.092;11.574;2022-11-14T08:16:07;95449.19;;;2.89;100.00
27429;BME280;14881;48.092;11.574;2022-11-14T08:18:40;95441.78;;;2.96;100.00
27429;BME280;14881;48.092;11.574;2022-11-14T08:21:09;95427.31;;;2.97;100.00
27429;BME280;14881;48.092;11.574;2022-11-14T08:23:36;95423.41;;;3.04;100.00
27429;BME280;14881;48.092;11.574;2022-11-14T08:26:04;95418.78;;;3.17;100.00
27429;BME280;14881;48.092;11.574;2022-11-14T08:28:32;95423.78;;;3.30;100.00
27429;BME280;14881;48.092;11.574;2022-11-14T08:31:03;95420.34;;;3.51;100.00
27429;BME280;14881;48.092;11.574;2022-11-14T08:33:31;95409.31;;;3.69;100.00
27429;BME280;14881;48.092;11.574;2022-11-14T08:36:01;95414.72;;;3.91;100.00
27429;BME280;14881;48.092;11.574;2022-11-14T08:38:30;95414.06;;;4.06;100.00
27429;BME280;14881;48.092;11.574;2022-11-14T08:40:59;95415.31;;;4.20;100.00
27429;BME280;14881;48.092;11.574;2022-11-14T08:43:27;95418.97;;;4.36;100.00
27429;BME280;14881;48.092;11.574;2022-11-14T08:45:56;95415.44;;;4.57;100.00
27429;BME280;14881;48.092;11.574;2022-11-14T08:48:27;95416.69;;;4.76;100.00
27429;BME280;14881;48.092;11.574;2022-11-14T08:50:56;95423.84;;;4.93;100.00
27429;BME280;14881;48.092;11.574;2022-11-14T08:53:25;95419.34;;;5.03;100.00
27429;BME280;14881;48.092;11.574;2022-11-14T08:55:53;95421.59;;;5.11;100.00
27429;BME280;14881;48.092;11.574;2022-11-14T08:58:20;95422.91;;;5.09;100.00
27429;BME280;14881;48.092;11.574;2022-11-14T09:00:48;95415.63;;;5.09;100.00
27429;BME280;14881;48.092;11.574;2022-11-14T09:03:17;95407.09;;;5.17;100.00
27429;BME280;14881;48.092;11.574;2022-11-14T09:05:50;95405.34;;;5.38;100.00
27429;BME280;14881;48.092;11.574;2022-11-14T09:08:18;95385.66;;;5.33;100.00
27429;BME280;14881;48.092;11.574;2022-11-14T09:10:50;95388.91;;;5.35;100.00
27429;BME280;14881;48.092;11.574;2022-11-14T09:13:18;95394.00;;;5.31;100.00
27429;BME280;14881;48.092;11.574;2022-11-14T09:15:46;95393.19;;;5.31;100.00
27429;BME280;14881;48.092;11.574;2022-11-14T09:18:16;95401.56;;;5.39;100.00
27429;BME280;14881;48.092;11.574;2022-11-14T09:20:44;95403.28;;;5.55;100.00
27429;BME280;14881;48.092;11.574;2022-11-14T09:23:12;95400.53;;;5.87;100.00
27429;BME280;14881;48.092;11.574;2022-11-14T09:25:40;95398.22;;;6.11;100.00
27429;BME280;14881;48.092;11.574;2022-11-14T09:28:09;95390.75;;;6.34;100.00
27429;BME280;14881;48.092;11.574;2022-11-14T09:30:36;95388.13;;;6.69;100.00
27429;BME280;14881;48.092;11.574;2022-11-14T09:33:06;95392.44;;;7.11;100.00
27429;BME280;14881;48.092;11.574;2022-11-14T09:35:37;95393.25;;;7.47;100.00
27429;BME280;14881;48.092;11.574;2022-11-14T09:38:07;95395.63;;;7.74;100.00
27429;BME280;14881;48.092;11.574;2022-11-14T09:40:43;95386.63;;;8.03;100.00
27429;BME280;14881;48.092;11.574;2022-11-14T09:43:33;95390.72;;;8.60;100.00
27429;BME280;14881;48.092;11.574;2022-11-14T09:46:13;95387.66;;;9.40;100.00
27429;BME280;14881;48.092;11.574;2022-11-14T09:48:43;95388.28;;;10.13;100.00
27429;BME280;14881;48.092;11.574;2022-11-14T09:51:14;95384.78;;;10.74;100.00
27429;BME280;14881;48.092;11.574;2022-11-14T09:53:49;95376.78;;;11.21;100.00
27429;BME280;14881;48.092;11.574;2022-11-14T09:56:20;95375.66;;;11.54;100.00
27429;BME280;14881;48.092;11.574;2022-11-14T09:58:51;95380.84;;;11.69;100.00
27429;BME280;14881;48.092;11.574;2022-11-14T10:01:31;95383.31;;;11.98;100.00
27429;BME280;14881;48.092;11.574;2022-11-14T10:04:10;95384.03;;;12.17;100.00
27429;BME280;14881;48.092;11.574;2022-11-14T10:06:47;95389.09;;;12.10;100.00
27429;BME280;14881;48.092;11.574;2022-11-14T10:09:35;95384.88;;;11.72;100.00
27429;BME280;14881;48.092;11.574;2022-11-14T10:12:09;95391.19;;;12.00;100.00
27429;BME280;14881;48.092;11.574;2022-11-14T10:14:52;95385.66;;;12.46;100.00
27429;BME280;14881;48.092;11.574;2022-11-14T10:17:41;95371.78;;;12.70;100.00
27429;BME280;14881;48.092;11.574;2022-11-14T10:20:15;95373.88;;;13.22;100.00
27429;BME280;14881;48.092;11.574;2022-11-14T10:23:08;95384.69;;;13.50;100.00
27429;BME280;14881;48.092;11.574;2022-11-14T10:25:52;95366.00;;;13.66;100.00
27429;BME280;14881;48.092;11.574;2022-11-14T10:28:32;95370.91;;;13.86;100.00
27429;BME280;14881;48.092;11.574;2022-11-14T10:31:18;95374.97;;;14.28;100.00
27429;BME280;14881;48.092;11.574;2022-11-14T10:33:52;95366.72;;;14.50;100.00
27429;BME280;14881;48.092;11.574;2022-11-14T10:36:32;95362.25;;;14.23;100.00
27429;BME280;14881;48.092;11.574;2022-11-14T10:39:08;95366.66;;;14.42;100.00
27429;BME280;14881;48.092;11.574;2022-11-14T10:41:38;95366.44;;;14.78;100.00
27429;BME280;14881;48.092;11.574;2022-11-14T10:44:27;95362.94;;;15.38;100.00
27429;BME280;14881;48.092;11.574;2022-11-14T10:47:00;95365.97;;;15.45;100.00
27429;BME280;14881;48.092;11.574;2022-11-14T10:49:31;95368.56;;;15.50;100.00
27429;BME280;14881;48.092;11.574;2022-11-14T10:52:08;95370.00;;;15.73;100.00
27429;BME280;14881;48.092;11.574;2022-11-14T10:54:41;95366.31;;;15.69;100.00
27429;BME280;14881;48.092;11.574;2022-11-14T10:57:15;95373.88;;;15.38;100.00
27429;BME280;14881;48.092;11.574;2022-11-14T10:59:43;95383.06;;;15.68;100.00
27429;BME280;14881;48.092;11.574;2022-11-14T11:02:14;95385.75;;;15.85;100.00
27429;BME280;14881;48.092;11.574;2022-11-14T11:04:44;95376.97;;;16.17;100.00
27429;BME280;14881;48.092;11.574;2022-11-14T11:07:22;95376.84;;;15.96;100.00
27429;BME280;14881;48.092;11.574;2022-11-14T11:10:19;95377.91;;;16.21;100.00
27429;BME280;14881;48.092;11.574;2022-11-14T11:13:05;95377.81;;;16.09;100.00
27429;BME280;14881;48.092;11.574;2022-11-14T11:15:39;95376.63;;;16.19;100.00
27429;BME280;14881;48.092;11.574;2022-11-14T11:18:24;95372.88;;;16.70;100.00
27429;BME280;14881;48.092;11.574;2022-11-14T11:21:05;95381.94;;;16.91;100.00
27429;BME280;14881;48.092;11.574;2022-11-14T11:23:34;95386.19;;;16.80;100.00
27429;BME280;14881;48.092;11.574;2022-11-14T11:26:05;95390.69;;;16.55;100.00
27429;BME280;14881;48.092;11.574;2022-11-14T11:28:35;95394.00;;;16.31;100.00
27429;BME280;14881;48.092;11.574;2022-11-14T11:31:05;95400.28;;;16.32;100.00
27429;BME280;14881;48.092;11.574;2022-11-14T11:33:36;95397.09;;;16.21;100.00
27429;BME280;14881;48.092;11.574;2022-11-14T11:36:09;95417.16;;;15.96;100.00
27429;BME280;14881;48.092;11.574;2022-11-14T11:38:39;95426.50;;;15.00;100.00
27429;BME280;14881;48.092;11.574;2022-11-14T11:41:15;95426.59;;;14.38;100.00
27429;BME280;14881;48.092;11.574;2022-11-14T11:44:06;95423.78;;;13.90;100.00
27429;BME280;14881;48.092;11.574;2022-11-14T11:46:42;95431.69;;;13.69;100.00
27429;BME280;14881;48.092;11.574;2022-11-14T11:49:15;95445.44;;;13.06;100.00
27429;BME280;14881;48.092;11.574;2022-11-14T11:51:45;95442.34;;;12.71;100.00
27429;BME280;14881;48.092;11.574;2022-11-14T11:54:16;95442.56;;;12.47;100.00
27429;BME280;14881;48.092;11.574;2022-11-14T11:56:47;95446.50;;;12.41;100.00
27429;BME280;14881;48.092;11.574;2022-11-14T11:59:26;95445.19;;;12.25;100.00
27429;BME280;14881;48.092;11.574;2022-11-14T12:01:55;95435.00;;;12.58;100.00
27429;BME280;14881;48.092;11.574;2022-11-14T12:04:24;95431.06;;;12.78;100.00
27429;BME280;14881;48.092;11.574;2022-11-14T12:06:56;95445.69;;;12.54;100.00
27429;BME280;14881;48.092;11.574;2022-11-14T12:09:28;95442.94;;;12.96;100.00
27429;BME280;14881;48.092;11.574;2022-11-14T12:12:26;95438.84;;;13.20;100.00
27429;BME280;14881;48.092;11.574;2022-11-14T12:15:12;95437.16;;;13.47;100.00
27429;BME280;14881;48.092;11.574;2022-11-14T12:17:55;95432.19;;;13.71;100.00
27429;BME280;14881;48.092;11.574;2022-11-14T12:20:47;95440.50;;;13.44;100.00
27429;BME280;14881;48.092;11.574;2022-11-14T12:26:31;95440.69;;;13.47;100.00
27429;BME280;14881;48.092;11.574;2022-11-14T12:32:14;95449.84;;;13.51;100.00
27429;BME280;14881;48.092;11.574;2022-11-14T12:34:45;95454.22;;;13.16;100.00
27429;BME280;14881;48.092;11.574;2022-11-14T12:37:19;95456.34;;;13.78;100.00
27429;BME280;14881;48.092;11.574;2022-11-14T12:39:57;95452.19;;;13.80;100.00
27429;BME280;14881;48.092;11.574;2022-11-14T12:42:25;95457.56;;;13.94;100.00
27429;BME280;14881;48.092;11.574;2022-11-14T12:44:53;95458.19;;;13.91;100.00
27429;BME280;14881;48.092;11.574;2022-11-14T12:47:22;95457.72;;;13.67;100.00
27429;BME280;14881;48.092;11.574;2022-11-14T12:50:01;95451.53;;;13.39;100.00
27429;BME280;14881;48.092;11.574;2022-11-14T12:52:44;95467.81;;;13.66;100.00
27429;BME280;14881;48.092;11.574;2022-11-14T12:55:55;95464.09;;;13.26;100.00
27429;BME280;14881;48.092;11.574;2022-11-14T12:58:58;95470.59;;;13.52;100.00
27429;BME280;14881;48.092;11.574;2022-11-14T13:01:47;95464.44;;;13.47;100.00
27429;BME280;14881;48.092;11.574;2022-11-14T13:04:30;95466.94;;;13.57;100.00
27429;BME280;14881;48.092;11.574;2022-11-14T13:07:22;95466.88;;;13.93;100.00
27429;BME280;14881;48.092;11.574;2022-11-14T13:10:13;95467.00;;;13.88;100.00
27429;BME280;14881;48.092;11.574;2022-11-14T13:12:41;95461.91;;;13.50;100.00
27429;BME280;14881;48.092;11.574;2022-11-14T13:15:28;95469.28;;;13.14;100.00
27429;BME280;14881;48.092;11.574;2022-11-14T13:18:20;95477.78;;;12.71;100.00